Time;durP1;ratioP1;P1;durP2;ratioP2;P2;SDS_P1;SDS_P2;PMS_P1;PMS_P2;Temp;Humidity;BMP_temperature;BMP_pressure;BME280_temperature;BME280_humidity;BME280_pressure;Samples;Min_cycle;Max_cycle;Signal;HPM_P1;HPM_P2
2021/12/31 00:01:13;;;;;;;16.00;4.20;;;12.00;99.90;;;;;;5028376;28;20037;-66
2021/12/31 00:03:39;;;;;;;17.92;4.15;;;11.90;99.90;;;;;;5011126;28;20045;-66
2021/12/31 00:06:06;;;;;;;15.32;3.25;;;11.90;99.90;;;;;;5021724;28;20111;-66
2021/12/31 00:08:32;;;;;;;16.08;4.63;;;12.00;99.90;;;;;;4992056;28;20077;-67
2021/12/31 00:10:59;;;;;;;9.68;3.55;;;12.00;99.90;;;;;;5025997;28;20042;-66
2021/12/31 00:13:29;;;;;;;11.10;3.38;;;11.90;99.90;;;;;;5012230;28;20061;-71
2021/12/31 00:15:56;;;;;;;23.63;4.05;;;11.90;99.90;;;;;;5026971;28;20053;-67
2021/12/31 00:18:21;;;;;;;12.48;3.25;;;11.90;99.90;;;;;;5028335;28;20054;-66
2021/12/31 00:20:47;;;;;;;12.40;3.28;;;11.90;99.90;;;;;;5027341;28;20048;-65
2021/12/31 00:23:15;;;;;;;20.33;4.00;;;11.90;99.90;;;;;;5028415;28;20495;-67
2021/12/31 00:25:43;;;;;;;16.85;3.55;;;11.90;99.90;;;;;;5011415;28;20371;-66
2021/12/31 00:28:10;;;;;;;14.50;3.35;;;11.80;99.90;;;;;;5028603;28;20049;-67
2021/12/31 00:30:37;;;;;;;15.95;4.25;;;11.80;99.90;;;;;;5028922;28;20085;-67
2021/12/31 00:33:04;;;;;;;18.48;4.05;;;11.80;99.90;;;;;;5029554;28;20049;-67
2021/12/31 00:35:31;;;;;;;14.48;3.15;;;11.80;99.90;;;;;;5027377;28;20057;-69
2021/12/31 00:37:58;;;;;;;13.65;3.58;;;11.80;99.90;;;;;;5028114;28;20053;-66
2021/12/31 00:40:24;;;;;;;17.38;3.67;;;11.80;99.90;;;;;;5028044;28;20517;-67
2021/12/31 00:42:50;;;;;;;20.15;4.93;;;11.70;99.90;;;;;;5028098;28;20045;-67
2021/12/31 00:45:19;;;;;;;19.08;4.10;;;11.70;99.90;;;;;;5028026;28;20419;-68
2021/12/31 00:47:46;;;;;;;8.52;3.03;;;11.80;99.90;;;;;;4991903;28;20073;-67
2021/12/31 00:50:13;;;;;;;16.48;3.85;;;11.70;99.90;;;;;;5023531;28;20041;-66
2021/12/31 00:52:39;;;;;;;22.20;4.35;;;11.70;99.90;;;;;;5030281;28;20049;-65
2021/12/31 00:55:06;;;;;;;16.30;3.50;;;11.70;99.90;;;;;;5032829;28;20144;-67
2021/12/31 00:57:32;;;;;;;14.45;4.00;;;11.70;99.90;;;;;;5017262;28;20050;-70
2021/12/31 00:59:58;;;;;;;19.67;5.05;;;11.70;99.90;;;;;;5030431;28;20543;-67
2021/12/31 01:02:27;;;;;;;19.33;4.43;;;11.70;99.90;;;;;;5033310;28;20053;-66
2021/12/31 01:04:53;;;;;;;12.52;3.97;;;11.70;99.90;;;;;;5032016;28;20635;-66
2021/12/31 01:07:19;;;;;;;18.17;3.80;;;11.70;99.90;;;;;;5030192;28;20041;-66
2021/12/31 01:09:45;;;;;;;20.83;4.72;;;11.70;99.90;;;;;;5031696;28;20103;-66
2021/12/31 01:12:12;;;;;;;17.63;3.95;;;11.70;99.90;;;;;;5033442;28;20500;-66
2021/12/31 01:14:43;;;;;;;15.32;3.63;;;11.70;99.90;;;;;;5031656;28;20049;-66
2021/12/31 01:17:13;;;;;;;17.60;4.22;;;11.70;99.90;;;;;;4998830;28;20049;-67
2021/12/31 01:19:46;;;;;;;18.05;4.07;;;11.60;99.90;;;;;;5047232;28;20398;-66
2021/12/31 01:22:27;;;;;;;20.33;4.78;;;11.70;99.90;;;;;;5016513;28;20092;-67
2021/12/31 01:24:53;;;;;;;17.67;4.55;;;11.70;99.90;;;;;;5015378;28;20137;-67
2021/12/31 01:27:19;;;;;;;14.45;3.47;;;11.70;99.90;;;;;;5030904;28;20120;-65
2021/12/31 01:29:45;;;;;;;16.20;3.78;;;11.70;99.90;;;;;;5009509;28;20062;-66
2021/12/31 01:32:11;;;;;;;16.33;4.03;;;11.70;99.90;;;;;;5031915;28;20137;-67
2021/12/31 01:34:38;;;;;;;12.32;3.58;;;11.70;99.90;;;;;;5032542;28;20057;-69
2021/12/31 01:37:04;;;;;;;18.30;4.47;;;11.70;99.90;;;;;;5032822;28;20100;-67
2021/12/31 01:39:30;;;;;;;15.45;3.63;;;11.70;99.90;;;;;;5031103;28;20053;-66
2021/12/31 01:41:58;;;;;;;13.07;3.83;;;11.70;99.90;;;;;;5031350;28;20068;-65
2021/12/31 01:44:36;;;;;;;15.23;4.10;;;11.80;99.90;;;;;;5031477;28;20363;-67
2021/12/31 01:47:08;;;;;;;21.90;4.05;;;11.80;99.90;;;;;;5032085;28;20053;-67
2021/12/31 01:49:37;;;;;;;10.73;3.40;;;11.80;99.90;;;;;;5025481;28;20558;-66
2021/12/31 01:52:04;;;;;;;21.27;3.55;;;11.80;99.90;;;;;;5031155;28;20053;-66
2021/12/31 01:54:31;;;;;;;15.85;3.67;;;11.80;99.90;;;;;;5031636;28;20398;-67
2021/12/31 01:56:59;;;;;;;21.38;4.40;;;11.80;99.90;;;;;;5032008;28;20057;-67
2021/12/31 01:59:25;;;;;;;15.07;4.43;;;11.90;99.90;;;;;;5014011;28;20522;-67
2021/12/31 02:01:51;;;;;;;15.23;3.58;;;11.90;99.90;;;;;;5030865;28;20030;-66
2021/12/31 02:04:17;;;;;;;15.27;3.95;;;11.90;99.90;;;;;;5014087;28;20162;-66
2021/12/31 02:06:43;;;;;;;16.60;5.07;;;12.00;99.90;;;;;;5013972;28;20046;-67
2021/12/31 02:09:08;;;;;;;14.05;3.80;;;12.00;99.90;;;;;;5013615;28;20041;-66
2021/12/31 02:11:34;;;;;;;14.52;3.80;;;12.00;99.90;;;;;;5042337;28;20041;-67
2021/12/31 02:14:02;;;;;;;17.70;3.80;;;12.10;99.90;;;;;;5000826;28;20161;-66
2021/12/31 02:16:29;;;;;;;14.75;3.50;;;12.10;99.90;;;;;;5012454;28;20093;-67
2021/12/31 02:18:55;;;;;;;12.98;3.53;;;12.10;99.90;;;;;;5000638;28;20200;-67
2021/12/31 02:21:21;;;;;;;13.27;2.85;;;12.10;99.90;;;;;;5032010;28;20045;-67
2021/12/31 02:23:51;;;;;;;16.38;3.60;;;12.00;99.90;;;;;;5031570;28;20053;-66
2021/12/31 02:26:17;;;;;;;19.67;3.97;;;12.10;99.90;;;;;;5031969;28;20049;-66
2021/12/31 02:28:43;;;;;;;15.63;3.63;;;12.00;99.90;;;;;;5031223;28;20057;-69
2021/12/31 02:31:09;;;;;;;14.50;3.88;;;12.00;99.90;;;;;;5011822;28;20118;-67
2021/12/31 02:33:34;;;;;;;13.90;4.15;;;12.00;99.90;;;;;;5028379;28;20532;-66
2021/12/31 02:36:03;;;;;;;15.77;4.68;;;12.00;99.90;;;;;;5030984;28;20080;-66
2021/12/31 02:38:28;;;;;;;15.25;3.80;;;11.90;99.90;;;;;;5030486;28;20565;-67
2021/12/31 02:40:54;;;;;;;12.73;3.50;;;12.00;99.90;;;;;;5012759;28;20116;-67
2021/12/31 02:43:20;;;;;;;16.67;4.00;;;11.90;99.90;;;;;;5010737;28;20403;-67
2021/12/31 02:45:47;;;;;;;20.77;4.68;;;11.90;99.90;;;;;;5010137;28;20074;-69
2021/12/31 02:48:13;;;;;;;21.65;4.38;;;11.90;99.90;;;;;;5010616;28;20129;-67
2021/12/31 02:50:42;;;;;;;13.70;3.78;;;12.00;99.90;;;;;;5021346;28;20049;-66
2021/12/31 02:53:13;;;;;;;16.58;3.67;;;12.00;99.90;;;;;;5030722;28;20467;-66
2021/12/31 02:55:41;;;;;;;16.08;3.45;;;12.00;99.90;;;;;;5030384;28;20053;-66
2021/12/31 02:58:08;;;;;;;12.00;2.90;;;12.00;99.90;;;;;;5045922;28;20144;-65
2021/12/31 03:00:37;;;;;;;14.43;3.92;;;12.00;99.90;;;;;;5046404;28;20048;-67
2021/12/31 03:03:06;;;;;;;14.70;3.47;;;12.00;99.90;;;;;;5029356;28;20037;-67
2021/12/31 03:05:35;;;;;;;13.13;3.38;;;12.10;99.90;;;;;;5031250;28;20124;-66
2021/12/31 03:08:03;;;;;;;14.45;3.38;;;12.10;99.90;;;;;;5030761;28;20053;-66
2021/12/31 03:10:30;;;;;;;12.15;3.15;;;12.10;99.90;;;;;;5045653;28;20096;-66
2021/12/31 03:12:57;;;;;;;12.15;3.05;;;12.10;99.90;;;;;;5029429;28;20059;-66
2021/12/31 03:15:25;;;;;;;11.18;3.70;;;12.10;99.90;;;;;;5029545;28;20056;-66
2021/12/31 03:17:57;;;;;;;14.50;3.92;;;12.10;99.90;;;;;;5029336;28;20053;-69
2021/12/31 03:20:36;;;;;;;9.55;3.25;;;12.10;99.90;;;;;;5030751;28;20094;-66
2021/12/31 03:23:03;;;;;;;13.88;3.40;;;12.10;99.90;;;;;;5013700;28;20516;-66
2021/12/31 03:25:29;;;;;;;11.95;3.10;;;12.10;99.90;;;;;;5012677;28;20168;-66
2021/12/31 03:27:54;;;;;;;12.75;2.92;;;12.10;99.90;;;;;;5030348;28;20128;-67
2021/12/31 03:30:20;;;;;;;14.25;3.92;;;12.10;99.90;;;;;;5029310;28;20056;-66
2021/12/31 03:32:46;;;;;;;11.38;4.13;;;12.10;99.90;;;;;;5030385;28;20506;-67
2021/12/31 03:35:11;;;;;;;12.93;3.17;;;12.10;99.90;;;;;;5029829;28;20048;-65
2021/12/31 03:37:37;;;;;;;10.02;2.90;;;12.10;99.90;;;;;;5045399;28;20048;-67
2021/12/31 03:40:04;;;;;;;13.38;3.42;;;12.10;99.90;;;;;;5045123;28;20045;-66
2021/12/31 03:42:31;;;;;;;9.07;2.92;;;12.20;99.90;;;;;;5029273;28;20048;-67
2021/12/31 03:44:57;;;;;;;13.00;3.42;;;12.20;99.90;;;;;;5010747;28;20041;-66
2021/12/31 03:47:23;;;;;;;11.40;3.40;;;12.20;99.90;;;;;;5029349;28;20406;-67
2021/12/31 03:49:49;;;;;;;11.38;3.50;;;12.20;99.90;;;;;;5045336;28;20124;-66
2021/12/31 03:52:14;;;;;;;16.10;3.55;;;12.20;99.90;;;;;;5028336;28;20041;-66
2021/12/31 03:54:40;;;;;;;12.77;3.42;;;12.20;99.90;;;;;;5045854;28;20490;-67
2021/12/31 03:57:06;;;;;;;10.30;3.42;;;12.20;99.90;;;;;;5012232;28;20473;-67
2021/12/31 03:59:32;;;;;;;11.80;2.97;;;12.10;99.90;;;;;;5028679;28;20526;-67
2021/12/31 04:01:57;;;;;;;11.82;3.55;;;12.10;99.90;;;;;;5029897;28;20056;-66
2021/12/31 04:04:23;;;;;;;8.75;2.50;;;12.10;99.90;;;;;;5028585;28;20085;-66
2021/12/31 04:06:49;;;;;;;8.95;2.65;;;12.10;99.90;;;;;;4996266;28;20077;-66
2021/12/31 04:09:15;;;;;;;14.02;3.42;;;12.20;99.90;;;;;;5028340;28;20065;-66
2021/12/31 04:11:40;;;;;;;10.13;3.42;;;12.20;99.90;;;;;;5029758;28;20474;-67
2021/12/31 04:14:06;;;;;;;14.77;3.53;;;12.20;99.90;;;;;;5029080;28;20048;-67
2021/12/31 04:16:32;;;;;;;10.20;2.85;;;12.20;99.90;;;;;;5027882;28;20462;-65
2021/12/31 04:18:58;;;;;;;8.70;2.40;;;12.20;99.90;;;;;;4977821;28;20045;-69
2021/12/31 04:21:24;;;;;;;7.50;2.72;;;12.20;99.90;;;;;;4995827;28;20053;-67
2021/12/31 04:24:06;;;;;;;12.00;2.80;;;12.20;99.90;;;;;;5028822;28;20410;-66
2021/12/31 04:26:32;;;;;;;8.40;2.67;;;12.30;99.90;;;;;;5013983;28;20140;-66
2021/12/31 04:28:58;;;;;;;8.88;2.95;;;12.30;99.90;;;;;;5032694;28;20060;-69
2021/12/31 04:31:24;;;;;;;7.47;2.25;;;12.30;99.90;;;;;;5015541;28;20053;-66
2021/12/31 04:33:49;;;;;;;9.52;2.85;;;12.30;99.90;;;;;;5033858;28;20494;-67
2021/12/31 04:36:15;;;;;;;10.20;3.30;;;12.30;99.90;;;;;;5015735;28;20056;-67
2021/12/31 04:38:41;;;;;;;10.23;2.88;;;12.40;99.90;;;;;;5032193;28;20063;-66
2021/12/31 04:41:07;;;;;;;10.52;3.30;;;12.30;99.90;;;;;;5032377;28;20053;-67
2021/12/31 04:43:32;;;;;;;9.13;3.25;;;12.40;99.90;;;;;;5033765;28;20096;-67
2021/12/31 04:45:58;;;;;;;8.82;2.90;;;12.40;99.90;;;;;;5031901;28;20117;-66
2021/12/31 04:48:24;;;;;;;9.80;2.88;;;12.40;99.90;;;;;;5029248;28;20163;-66
2021/12/31 04:50:50;;;;;;;8.43;3.05;;;12.40;99.90;;;;;;5013000;28;20397;-66
2021/12/31 04:53:16;;;;;;;8.38;2.70;;;12.40;99.90;;;;;;5033089;28;20144;-66
2021/12/31 04:55:43;;;;;;;8.63;2.67;;;12.40;99.90;;;;;;5033320;28;20041;-65
2021/12/31 04:58:09;;;;;;;8.45;2.80;;;12.40;99.90;;;;;;5032023;28;20049;-66
2021/12/31 05:00:35;;;;;;;11.18;2.95;;;12.40;99.90;;;;;;5033350;28;20056;-68
2021/12/31 05:03:10;;;;;;;8.13;2.42;;;12.50;99.90;;;;;;5015935;28;20049;-65
2021/12/31 05:05:37;;;;;;;9.43;2.95;;;12.50;99.90;;;;;;5032226;28;20052;-65
2021/12/31 05:08:04;;;;;;;11.50;2.88;;;12.50;99.90;;;;;;5033320;28;20189;-70
2021/12/31 05:10:32;;;;;;;10.60;3.30;;;12.50;99.90;;;;;;5031235;28;20084;-65
2021/12/31 05:13:02;;;;;;;7.32;2.70;;;12.50;99.90;;;;;;5033322;28;20095;-66
2021/12/31 05:15:32;;;;;;;9.43;2.72;;;12.50;99.90;;;;;;5032716;28;20060;-67
2021/12/31 05:17:58;;;;;;;8.75;2.63;;;12.50;99.90;;;;;;5031506;28;20514;-66
2021/12/31 05:20:24;;;;;;;7.63;2.65;;;12.50;99.90;;;;;;5032415;28;20048;-66
2021/12/31 05:22:52;;;;;;;9.88;2.95;;;12.40;99.90;;;;;;5048617;28;20053;-67
2021/12/31 05:25:19;;;;;;;7.60;2.63;;;12.40;99.90;;;;;;5031400;28;20061;-66
2021/12/31 05:27:44;;;;;;;10.60;2.75;;;12.40;99.90;;;;;;5031764;28;20452;-67
2021/12/31 05:30:11;;;;;;;7.85;2.42;;;12.40;99.90;;;;;;5031990;28;20120;-66
2021/12/31 05:32:37;;;;;;;5.32;2.47;;;12.40;99.90;;;;;;5031965;28;20485;-65
2021/12/31 05:35:03;;;;;;;6.85;2.70;;;12.40;99.90;;;;;;5031718;28;20049;-67
2021/12/31 05:37:29;;;;;;;8.00;2.60;;;12.40;99.90;;;;;;5030414;28;20053;-67
2021/12/31 05:39:54;;;;;;;8.85;2.67;;;12.40;99.90;;;;;;5031515;28;20356;-67
2021/12/31 05:42:20;;;;;;;8.57;2.85;;;12.40;99.90;;;;;;4998446;28;20046;-66
2021/12/31 05:44:48;;;;;;;4.82;2.30;;;12.30;99.90;;;;;;5048042;28;20531;-67
2021/12/31 05:47:14;;;;;;;6.90;2.63;;;12.40;99.90;;;;;;5047265;28;20053;-67
2021/12/31 05:49:39;;;;;;;9.23;2.60;;;12.30;99.90;;;;;;5031076;28;20478;-66
2021/12/31 05:52:06;;;;;;;5.30;2.20;;;12.20;99.90;;;;;;5015138;28;20058;-67
2021/12/31 05:54:32;;;;;;;5.38;2.50;;;12.30;99.90;;;;;;5031097;28;20057;-66
2021/12/31 05:56:57;;;;;;;8.73;2.65;;;12.20;99.90;;;;;;5030773;28;20124;-66
2021/12/31 05:59:23;;;;;;;11.00;3.03;;;12.20;99.90;;;;;;5027050;28;20466;-67
2021/12/31 06:01:49;;;;;;;6.57;3.00;;;12.20;99.90;;;;;;5032525;28;20073;-67
2021/12/31 06:04:16;;;;;;;6.18;2.40;;;12.20;99.90;;;;;;5010583;28;20091;-66
2021/12/31 06:06:43;;;;;;;7.60;2.75;;;12.20;99.90;;;;;;5004336;28;20063;-66
2021/12/31 06:09:09;;;;;;;10.88;2.92;;;12.30;99.90;;;;;;5014735;28;20055;-68
2021/12/31 06:11:35;;;;;;;7.03;2.45;;;12.30;99.90;;;;;;5014000;28;20049;-67
2021/12/31 06:14:03;;;;;;;5.28;2.60;;;12.30;99.90;;;;;;5030896;28;20383;-67
2021/12/31 06:16:33;;;;;;;5.93;2.28;;;12.30;99.90;;;;;;5046424;28;20045;-68
2021/12/31 06:19:03;;;;;;;7.45;2.78;;;12.30;99.90;;;;;;5030722;28;20450;-67
2021/12/31 06:21:29;;;;;;;7.72;2.58;;;12.30;99.90;;;;;;5031709;28;20049;-66
2021/12/31 06:23:55;;;;;;;6.90;2.97;;;12.30;99.90;;;;;;5012689;28;20060;-67
2021/12/31 06:26:20;;;;;;;6.03;2.55;;;12.30;99.90;;;;;;5011507;28;20041;-66
2021/12/31 06:28:46;;;;;;;9.45;3.15;;;12.40;99.90;;;;;;5029217;28;20037;-66
2021/12/31 06:31:12;;;;;;;9.32;2.70;;;12.40;99.90;;;;;;5014402;28;20064;-67
2021/12/31 06:33:37;;;;;;;5.68;2.35;;;12.40;99.90;;;;;;5014123;28;20103;-66
2021/12/31 06:36:03;;;;;;;5.10;2.45;;;12.40;99.90;;;;;;5031659;28;20045;-66
2021/12/31 06:38:30;;;;;;;7.55;2.70;;;12.40;99.90;;;;;;5013237;28;20541;-66
2021/12/31 06:40:56;;;;;;;7.65;2.35;;;12.40;99.90;;;;;;5030611;28;20056;-65
2021/12/31 06:43:22;;;;;;;8.40;2.67;;;12.30;99.90;;;;;;5013562;28;20046;-66
2021/12/31 06:45:47;;;;;;;8.50;2.53;;;12.30;99.90;;;;;;5018932;28;20061;-67
2021/12/31 06:48:13;;;;;;;7.90;2.47;;;12.30;99.90;;;;;;5018941;28;20058;-66
2021/12/31 06:50:39;;;;;;;9.18;2.30;;;12.30;99.90;;;;;;5029998;28;20186;-66
2021/12/31 06:53:04;;;;;;;6.25;2.63;;;12.30;99.90;;;;;;5031341;28;20505;-67
2021/12/31 06:55:32;;;;;;;5.90;2.30;;;12.40;99.90;;;;;;5030678;28;20045;-68
2021/12/31 06:57:58;;;;;;;8.50;2.60;;;12.40;99.90;;;;;;5046295;28;20045;-69
2021/12/31 07:00:24;;;;;;;7.25;2.47;;;12.30;99.90;;;;;;5029726;28;20042;-65
2021/12/31 07:02:50;;;;;;;7.10;2.80;;;12.40;99.90;;;;;;5014008;28;20060;-67
2021/12/31 07:05:16;;;;;;;9.25;3.08;;;12.40;99.90;;;;;;5030199;28;20393;-66
2021/12/31 07:07:42;;;;;;;8.15;2.53;;;12.30;99.90;;;;;;5015346;28;20045;-66
2021/12/31 07:10:08;;;;;;;6.05;2.38;;;12.30;99.90;;;;;;5012624;28;20477;-66
2021/12/31 07:12:34;;;;;;;7.00;2.67;;;12.30;99.90;;;;;;5029702;28;20049;-66
2021/12/31 07:14:59;;;;;;;6.60;2.38;;;12.30;99.90;;;;;;5030842;28;20041;-66
2021/12/31 07:17:28;;;;;;;6.22;2.22;;;12.30;99.90;;;;;;5029261;28;20053;-66
2021/12/31 07:19:54;;;;;;;4.38;2.08;;;12.20;99.90;;;;;;5030704;28;20049;-67
2021/12/31 07:22:21;;;;;;;4.43;2.20;;;12.40;99.90;;;;;;4996886;28;20595;-70
2021/12/31 07:24:47;;;;;;;4.93;2.22;;;12.30;99.90;;;;;;5030531;28;20045;-66
2021/12/31 07:27:12;;;;;;;3.65;1.83;;;12.30;99.90;;;;;;5030364;28;20068;-66
2021/12/31 07:29:38;;;;;;;5.30;2.30;;;12.30;99.90;;;;;;5030088;28;20060;-67
2021/12/31 07:32:04;;;;;;;8.32;2.63;;;12.30;99.90;;;;;;5029419;28;20120;-65
2021/12/31 07:34:30;;;;;;;6.95;2.40;;;12.30;99.90;;;;;;5028981;28;20136;-65
2021/12/31 07:36:55;;;;;;;6.63;2.55;;;12.30;99.90;;;;;;5030389;28;20458;-67
2021/12/31 07:39:24;;;;;;;6.03;2.67;;;12.20;99.90;;;;;;5029953;28;20069;-67
2021/12/31 07:41:50;;;;;;;5.65;2.38;;;12.20;99.90;;;;;;5027991;28;20053;-67
2021/12/31 07:44:16;;;;;;;4.47;2.42;;;12.20;99.90;;;;;;5030208;28;20056;-66
2021/12/31 07:46:43;;;;;;;6.93;2.55;;;12.20;99.90;;;;;;5029758;28;20070;-67
2021/12/31 07:49:09;;;;;;;6.20;2.40;;;12.20;99.90;;;;;;5045069;28;20057;-66
2021/12/31 07:51:35;;;;;;;8.63;2.40;;;12.10;99.90;;;;;;5028943;28;20041;-67
2021/12/31 07:54:01;;;;;;;4.80;2.20;;;12.10;99.90;;;;;;5028950;28;20045;-67
2021/12/31 07:56:26;;;;;;;6.03;2.42;;;12.10;99.90;;;;;;5029137;28;20057;-68
2021/12/31 07:58:52;;;;;;;7.97;2.30;;;12.10;99.90;;;;;;5012332;28;20056;-67
2021/12/31 08:01:18;;;;;;;4.13;2.50;;;12.10;99.90;;;;;;5029620;28;20092;-66
2021/12/31 08:03:43;;;;;;;7.68;3.08;;;12.10;99.90;;;;;;5028452;28;20442;-66
2021/12/31 08:06:09;;;;;;;6.63;2.60;;;12.20;99.90;;;;;;5029085;28;20037;-66
2021/12/31 08:08:35;;;;;;;8.88;2.60;;;12.20;99.90;;;;;;5028277;28;20071;-66
2021/12/31 08:11:00;;;;;;;6.05;2.30;;;12.20;99.90;;;;;;5028696;28;20041;-66
2021/12/31 08:13:27;;;;;;;7.07;2.22;;;12.20;99.90;;;;;;5029487;28;20456;-67
2021/12/31 08:15:54;;;;;;;6.07;2.38;;;12.30;99.90;;;;;;5029612;28;20053;-66
2021/12/31 08:18:19;;;;;;;5.15;2.08;;;12.40;99.90;;;;;;5029984;28;20046;-66
2021/12/31 08:20:45;;;;;;;5.68;2.97;;;12.40;99.90;;;;;;5028057;28;20053;-65
2021/12/31 08:23:14;;;;;;;5.82;2.47;;;12.30;99.90;;;;;;5011982;28;20049;-66
2021/12/31 08:25:42;;;;;;;6.32;2.92;;;12.30;99.90;;;;;;5028183;28;20081;-66
2021/12/31 08:28:08;;;;;;;6.18;2.45;;;12.30;99.90;;;;;;5029184;28;20045;-67
2021/12/31 08:30:34;;;;;;;6.15;2.65;;;12.30;99.90;;;;;;5027945;28;20033;-66
2021/12/31 08:33:01;;;;;;;5.15;2.20;;;12.40;99.90;;;;;;5028351;28;20103;-67
2021/12/31 08:35:27;;;;;;;5.38;2.55;;;12.30;99.90;;;;;;5028615;28;20128;-67
2021/12/31 08:37:53;;;;;;;7.35;2.70;;;12.40;99.90;;;;;;5027748;28;20132;-66
2021/12/31 08:40:20;;;;;;;6.22;2.90;;;12.40;99.90;;;;;;5025536;28;20061;-67
2021/12/31 08:42:46;;;;;;;6.50;2.55;;;12.40;99.90;;;;;;5026945;28;20068;-66
2021/12/31 08:45:12;;;;;;;6.43;2.67;;;12.40;99.90;;;;;;5012382;28;20053;-65
2021/12/31 08:47:37;;;;;;;8.75;2.65;;;12.40;99.90;;;;;;5028355;28;20481;-67
2021/12/31 08:50:04;;;;;;;6.13;2.40;;;12.40;99.90;;;;;;5012213;28;20140;-66
2021/12/31 08:52:30;;;;;;;5.65;2.50;;;12.40;99.90;;;;;;5025083;28;20119;-66
2021/12/31 08:54:55;;;;;;;5.63;2.70;;;12.40;99.90;;;;;;5021360;28;20449;-66
2021/12/31 08:57:21;;;;;;;5.68;2.28;;;12.40;99.90;;;;;;5030104;28;20473;-66
2021/12/31 08:59:47;;;;;;;5.38;2.63;;;12.40;99.90;;;;;;5011594;28;20045;-67
2021/12/31 09:02:16;;;;;;;7.85;3.20;;;12.40;99.90;;;;;;5045023;28;20045;-66
2021/12/31 09:04:41;;;;;;;7.43;2.88;;;12.40;99.90;;;;;;4995646;28;20045;-65
2021/12/31 09:07:07;;;;;;;8.40;2.97;;;12.40;99.90;;;;;;5029747;28;20049;-66
2021/12/31 09:09:33;;;;;;;5.38;2.40;;;12.40;99.90;;;;;;5011918;28;20053;-67
2021/12/31 09:11:58;;;;;;;6.25;2.38;;;12.40;99.90;;;;;;5010966;28;20041;-67
2021/12/31 09:14:24;;;;;;;4.53;2.60;;;12.40;99.90;;;;;;5031914;28;20041;-66
2021/12/31 09:16:51;;;;;;;7.93;2.85;;;12.40;99.90;;;;;;5031124;28;20052;-66
2021/12/31 09:19:17;;;;;;;7.57;2.92;;;12.40;99.90;;;;;;5031522;28;20045;-67
2021/12/31 09:21:43;;;;;;;5.18;2.47;;;12.40;99.90;;;;;;5032472;28;20042;-66
2021/12/31 09:24:09;;;;;;;8.77;2.90;;;12.40;99.90;;;;;;5031972;28;20210;-66
2021/12/31 09:26:35;;;;;;;5.78;2.70;;;12.40;99.90;;;;;;5031134;28;20417;-66
2021/12/31 09:29:01;;;;;;;6.85;2.72;;;12.30;99.90;;;;;;5014172;28;20515;-66
2021/12/31 09:31:26;;;;;;;6.28;2.63;;;12.30;99.90;;;;;;5026682;28;20045;-67
2021/12/31 09:33:52;;;;;;;6.45;2.80;;;12.40;99.90;;;;;;5023971;28;20577;-67
2021/12/31 09:36:18;;;;;;;7.55;2.75;;;12.40;99.90;;;;;;5014809;28;20045;-66
2021/12/31 09:38:44;;;;;;;7.90;3.08;;;12.40;99.90;;;;;;5030914;28;20150;-65
2021/12/31 09:41:10;;;;;;;8.85;3.35;;;12.40;99.90;;;;;;5014074;28;20063;-67
2021/12/31 09:43:38;;;;;;;6.47;2.53;;;12.40;99.90;;;;;;5024539;28;20403;-66
2021/12/31 09:46:04;;;;;;;6.05;2.70;;;12.40;99.90;;;;;;5027511;28;20131;-67
2021/12/31 09:48:29;;;;;;;10.15;3.22;;;12.40;99.90;;;;;;5024628;28;20125;-66
2021/12/31 09:50:56;;;;;;;7.03;3.40;;;12.40;99.90;;;;;;5007350;28;20049;-68
2021/12/31 09:53:24;;;;;;;7.95;3.08;;;12.40;99.90;;;;;;5031456;28;20049;-67
2021/12/31 09:55:52;;;;;;;6.68;3.47;;;12.40;99.90;;;;;;5014296;28;20693;-66
2021/12/31 09:58:20;;;;;;;8.43;2.90;;;12.30;99.90;;;;;;5031063;28;20041;-66
2021/12/31 10:00:47;;;;;;;7.07;2.70;;;12.30;99.90;;;;;;5023159;28;20058;-66
2021/12/31 10:03:15;;;;;;;7.85;2.85;;;12.40;99.90;;;;;;5025974;28;20410;-66
2021/12/31 10:05:43;;;;;;;8.13;3.60;;;12.30;99.90;;;;;;4995114;28;20060;-69
2021/12/31 10:08:23;;;;;;;29.02;25.25;;;12.30;99.90;;;;;;5021244;28;20071;-67
2021/12/31 10:11:13;;;;;;;14.48;8.05;;;12.20;99.90;;;;;;5031634;28;20117;-68
2021/12/31 10:13:42;;;;;;;9.07;3.28;;;12.10;99.90;;;;;;5029686;28;20102;-67
2021/12/31 10:16:32;;;;;;;7.38;3.70;;;12.10;99.90;;;;;;5031926;28;20057;-66
2021/12/31 10:19:18;;;;;;;8.52;3.95;;;12.00;99.90;;;;;;5030622;28;20406;-66
2021/12/31 10:21:56;;;;;;;10.30;4.90;;;12.00;99.90;;;;;;5030526;28;20041;-71
2021/12/31 10:24:23;;;;;;;11.82;5.28;;;12.00;99.90;;;;;;5031652;28;20139;-66
2021/12/31 10:26:50;;;;;;;10.85;5.30;;;12.00;99.90;;;;;;5013539;28;20422;-65
2021/12/31 10:29:16;;;;;;;10.80;5.82;;;11.90;99.90;;;;;;5030409;28;20367;-67
2021/12/31 10:31:47;;;;;;;9.75;5.88;;;11.90;99.90;;;;;;5013854;28;20052;-66
2021/12/31 10:34:36;;;;;;;18.15;5.25;;;11.90;99.90;;;;;;5030332;28;20057;-66
2021/12/31 10:37:13;;;;;;;11.48;4.90;;;11.90;99.90;;;;;;5030109;28;20046;-66
2021/12/31 10:39:39;;;;;;;10.18;4.90;;;11.90;99.90;;;;;;5029744;28;20524;-66
2021/12/31 10:42:10;;;;;;;8.00;3.40;;;11.90;99.90;;;;;;5030819;28;20132;-67
2021/12/31 10:44:54;;;;;;;6.97;3.53;;;11.90;99.90;;;;;;5026761;28;20057;-67
2021/12/31 10:47:23;;;;;;;8.05;3.50;;;11.80;99.90;;;;;;5029852;28;20042;-68
2021/12/31 10:50:04;;;;;;;8.98;4.13;;;11.90;99.90;;;;;;4996266;28;20050;-69
2021/12/31 10:52:46;;;;;;;8.73;3.70;;;11.90;99.90;;;;;;5024602;28;20091;-67
2021/12/31 10:57:45;;;;;;;7.55;3.40;;;11.90;99.90;;;;;;5010208;28;20049;-67
2021/12/31 11:00:11;;;;;;;9.02;3.20;;;11.80;99.90;;;;;;5019366;28;20041;-68
2021/12/31 11:02:38;;;;;;;6.20;2.97;;;11.90;99.90;;;;;;5029591;28;20049;-67
2021/12/31 11:05:05;;;;;;;7.18;3.25;;;11.80;99.90;;;;;;5021403;28;20046;-66
2021/12/31 11:07:31;;;;;;;7.60;3.13;;;11.90;99.90;;;;;;4993878;28;20072;-67
2021/12/31 11:09:58;;;;;;;8.70;3.67;;;11.80;99.90;;;;;;5013663;28;20045;-68
2021/12/31 11:12:28;;;;;;;7.25;3.42;;;11.80;99.90;;;;;;5029708;28;20039;-67
2021/12/31 11:14:55;;;;;;;5.68;2.88;;;11.80;99.90;;;;;;5025777;28;20049;-66
2021/12/31 11:17:21;;;;;;;7.20;3.78;;;11.80;99.90;;;;;;5011233;28;20057;-67
2021/12/31 11:19:49;;;;;;;9.30;3.75;;;11.80;99.90;;;;;;4993702;28;20049;-68
2021/12/31 11:22:27;;;;;;;11.90;3.95;;;11.80;99.90;;;;;;5029274;28;20143;-68
2021/12/31 11:24:52;;;;;;;8.02;4.65;;;11.80;99.90;;;;;;5029508;28;20106;-72
2021/12/31 11:27:30;;;;;;;12.57;5.38;;;11.80;99.90;;;;;;5013106;28;20559;-68
2021/12/31 11:29:57;;;;;;;7.68;4.30;;;11.70;99.90;;;;;;5009213;28;20042;-69
2021/12/31 11:33:06;;;;;;;7.85;4.07;;;11.70;99.90;;;;;;5028550;28;20541;-67
2021/12/31 11:35:44;;;;;;;12.50;5.32;;;11.70;99.90;;;;;;4925311;29;20139;-68
2021/12/31 11:38:39;;;;;;;11.23;4.80;;;11.70;99.90;;;;;;4934003;29;20087;-67
2021/12/31 11:41:17;;;;;;;15.48;9.63;;;11.70;99.90;;;;;;4978172;28;20054;-69
2021/12/31 11:43:44;;;;;;;11.23;6.35;;;11.70;99.90;;;;;;5026393;28;20537;-67
2021/12/31 11:46:12;;;;;;;8.23;4.50;;;11.70;99.90;;;;;;5027892;28;20379;-69
2021/12/31 11:48:51;;;;;;;7.13;4.72;;;11.60;99.90;;;;;;5028032;28;20103;-68
2021/12/31 11:51:29;;;;;;;8.55;5.45;;;11.60;99.90;;;;;;5026164;28;20911;-70
2021/12/31 11:53:58;;;;;;;9.90;4.28;;;11.60;99.90;;;;;;5022703;28;20397;-70
2021/12/31 11:56:35;;;;;;;11.48;4.55;;;11.50;99.90;;;;;;5009437;28;20486;-68
2021/12/31 11:59:09;;;;;;;8.98;4.10;;;11.50;99.90;;;;;;5018632;28;20104;-67
2021/12/31 12:01:47;;;;;;;11.10;4.15;;;11.50;99.90;;;;;;5027406;28;20045;-69
2021/12/31 12:04:26;;;;;;;10.02;4.43;;;11.50;99.90;;;;;;5027202;28;20046;-69
2021/12/31 12:07:00;;;;;;;8.82;4.60;;;11.50;99.90;;;;;;5027782;28;20064;-69
2021/12/31 12:09:41;;;;;;;9.10;4.30;;;11.50;99.90;;;;;;5030295;28;20049;-69
2021/12/31 12:12:08;;;;;;;8.98;4.53;;;11.50;99.90;;;;;;5029430;28;20046;-68
2021/12/31 12:14:40;;;;;;;8.30;4.50;;;11.50;99.90;;;;;;5030320;28;20099;-68
2021/12/31 12:17:07;;;;;;;10.82;4.30;;;11.50;99.90;;;;;;5019383;28;20045;-68
2021/12/31 12:19:45;;;;;;;6.00;3.90;;;11.50;99.90;;;;;;5030123;28;20424;-66
2021/12/31 12:22:33;;;;;;;7.57;3.78;;;11.50;99.90;;;;;;5028368;28;20100;-66
2021/12/31 12:25:18;;;;;;;7.60;3.83;;;11.50;99.90;;;;;;5028800;28;20148;-68
2021/12/31 12:27:48;;;;;;;6.63;4.05;;;11.50;99.90;;;;;;5023049;28;20057;-66
2021/12/31 12:30:15;;;;;;;6.18;3.83;;;11.50;99.90;;;;;;5017876;28;20145;-67
2021/12/31 12:35:19;;;;;;;8.63;3.53;;;11.50;99.90;;;;;;5028547;28;20418;-66
2021/12/31 12:37:55;;;;;;;6.47;3.30;;;11.50;99.90;;;;;;5028325;28;20131;-66
2021/12/31 12:40:41;;;;;;;6.72;3.55;;;11.50;99.90;;;;;;5028894;28;20144;-65
2021/12/31 12:43:32;;;;;;;9.40;4.50;;;11.50;99.90;;;;;;5028325;28;20132;-67
2021/12/31 12:46:01;;;;;;;5.93;3.40;;;11.50;99.90;;;;;;5029316;28;20069;-65
2021/12/31 12:48:46;;;;;;;7.40;3.67;;;11.50;99.90;;;;;;5030735;28;20049;-67
2021/12/31 12:51:15;;;;;;;7.38;4.10;;;11.50;99.90;;;;;;5031611;28;20403;-66
2021/12/31 12:53:43;;;;;;;6.57;3.83;;;11.50;99.90;;;;;;5033543;28;20053;-66